ADDS METAR Data INFO
IDs: Format: Raw Decoded Include TAF

Data at: 0219 UTC 18 Jan 2018

KAZE 180155Z AUTO 33005KT 10SM CLR M02/M19 A3038 RMK AO2 T10171190
KAZE 180135Z AUTO 31006KT 10SM CLR M01/M19 A3038 RMK AO2 T10151191
KAZE 180115Z AUTO 31004G15KT 10SM CLR M01/M19 A3036 RMK AO2 T10121193
KAZE 180055Z AUTO 32008KT 280V340 10SM CLR M01/M19 A3036 RMK AO2 T10101191
KAZE 180035Z AUTO 32007G18KT 260V360 10SM CLR M01/M18 A3035 RMK AO2 T10061184
KAZE 180015Z AUTO 32007G14KT 280V350 10SM CLR 00/M18 A3034 RMK AO2 T10011182
KAZE 172355Z AUTO 31007G15KT 270V340 10SM CLR 00/M18 A3033 RMK AO2 T00001182 10058 20000
KAZE 172335Z AUTO 30006KT 10SM CLR 00/M17 A3033 RMK AO2 T00021167
KAZE 172315Z AUTO 30003KT 10SM CLR 01/M17 A3032 RMK AO2 T00071170
KAZE 172255Z AUTO 31004KT 10SM CLR 01/M15 A3031 RMK AO2 T00131155
KAZE 172235Z AUTO 29006KT 10SM CLR 02/M15 A3030 RMK AO2 T00201155
KAZE 172215Z AUTO 29010G16KT 270V330 10SM CLR 03/M15 A3030 RMK AO2 T00251154
KAZE 172155Z AUTO 29007G14KT 250V310 10SM CLR 03/M15 A3029 RMK AO2 T00321155
KAZE 172135Z AUTO 30009G15KT 270V340 10SM CLR 04/M15 A3028 RMK AO2 T00391152
KAZE 172115Z AUTO 28008G18KT 230V320 10SM CLR 04/M15 A3028 RMK AO2 T00441147
KAZE 172055Z AUTO 27009G14KT 220V320 10SM CLR 05/M15 A3027 RMK AO2 T00501147
KAZE 172035Z AUTO 30006G16KT 10SM CLR 05/M14 A3027 RMK AO2 T00521141
KAZE 172015Z AUTO 28007G17KT 260V320 10SM CLR 05/M12 A3026 RMK AO2 T00521122
KAZE 171955Z AUTO 29009G18KT 10SM CLR 06/M12 A3025 RMK AO2 T00551123
KAZE 171935Z AUTO 29007G17KT 240V320 10SM CLR 05/M10 A3025 RMK AO2 T00531100
KAZE 171915Z AUTO 31005G16KT 10SM CLR 05/M09 A3026 RMK AO2 T00471094
KAZE 171855Z AUTO 30006G15KT 10SM CLR 05/M08 A3026 RMK AO2 T00501082
KAZE 171835Z AUTO 32009KT 280V340 10SM CLR 05/M06 A3027 RMK AO2 T00511057
KAZE 171815Z AUTO 29007G14KT 260V320 10SM SCT020 04/M04 A3029 RMK AO2 T00381045
KAZE 171755Z AUTO 30007KT 270V340 10SM BKN020 04/M04 A3030 RMK AO2 T00391039 10057 20015
KAZE 171735Z AUTO 27004G15KT 10SM SCT010 OVC016 03/M03 A3032 RMK AO2 T00291030
KAZE 171715Z AUTO 28008KT 240V310 10SM OVC011 02/M02 A3033 RMK AO2 T00171019
KAZE 171655Z AUTO 30008KT 10SM OVC011 02/M02 A3033 RMK AO2 T00161020
KAZE 171635Z AUTO 31005KT 10SM OVC013 02/M02 A3034 RMK AO2 T00211019
KAZE 171615Z AUTO 30006KT 10SM OVC011 02/M01 A3034 RMK AO2 T00211013
KAZE 171555Z AUTO 31005KT 10SM -RA BKN011 BKN026 OVC045 02/M01 A3034 RMK AO2 T00221008
KAZE 171535Z AUTO 32004KT 10SM -RA OVC043 02/M01 A3034 RMK AO2 T00231011
KAZE 171515Z AUTO 31005KT 10SM -DZ BKN041 OVC047 03/M02 A3035 RMK AO2 T00251019
KAZE 171455Z AUTO 32005KT 10SM -RA SCT036 OVC046 03/M02 A3034 RMK AO2 T00281020
KAZE 171435Z AUTO 30008G14KT 270V340 10SM SCT015 SCT036 OVC044 03/M02 A3033 RMK AO2 T00311017
KAZE 171415Z AUTO 32006KT 10SM -DZ OVC042 03/M01 A3033 RMK AO2 T00321015
KAZE 171355Z AUTO 33009KT 10SM -DZ SCT018 OVC040 04/M02 A3031 RMK AO2 T00381017
KAZE 171335Z AUTO 32007KT 10SM BKN018 BKN040 04/M02 A3030 RMK AO2 T00411016
KAZE 171315Z AUTO 32004KT 10SM BKN018 OVC040 05/M01 A3030 RMK AO2 T00461008
KAZE 171255Z AUTO 32008KT 280V340 10SM SCT018 BKN090 05/00 A3029 RMK AO2 T00491005
KAZE 171235Z AUTO 31006KT 10SM SCT090 05/00 A3028 RMK AO2 T00511002
KAZE 171215Z AUTO 32006KT 10SM CLR 05/00 A3028 RMK AO2 T00530000
KAZE 171155Z AUTO 33005KT 10SM SCT075 06/00 A3026 RMK AO2 T00570001 10072 20046
KAZE 171135Z AUTO 34005KT 10SM SCT065 BKN075 06/00 A3026 RMK AO2 T00610003
KAZE 171115Z AUTO 32004KT 10SM BKN065 BKN085 07/01 A3027 RMK AO2 T00650008
KAZE 171055Z AUTO 32005KT 10SM OVC065 07/01 A3026 RMK AO2 T00700010
KAZE 171035Z AUTO 34003KT 10SM OVC065 07/02 A3025 RMK AO2 T00710017
KAZE 171015Z AUTO 00000KT 10SM OVC065 07/02 A3026 RMK AO2 T00700020
KAZE 170955Z AUTO 31003KT 10SM OVC065 07/02 A3026 RMK AO2 T00710019
KAZE 170935Z AUTO 00000KT 10SM OVC065 07/02 A3025 RMK AO2 T00700016
KAZE 170915Z AUTO 34003KT 10SM OVC065 07/02 A3026 RMK AO2 T00670017
KAZE 170855Z AUTO 00000KT 10SM OVC065 06/02 A3026 RMK AO2 T00600023
KAZE 170835Z AUTO 00000KT 10SM BKN065 05/02 A3026 RMK AO2 T00500024
KAZE 170815Z AUTO 00000KT 10SM CLR 06/01 A3025 RMK AO2 T00620012
KAZE 170755Z AUTO 00000KT 10SM CLR 05/03 A3026 RMK AO2 T00520027
KAZE 170735Z AUTO 00000KT 10SM CLR 06/02 A3026 RMK AO2 T00600015
KAZE 170715Z AUTO 28003KT 10SM SCT060 06/02 A3027 RMK AO2 T00600021
KAZE 170655Z AUTO 00000KT 10SM SCT048 OVC060 06/02 A3028 RMK AO2 T00630024
KAZE 170635Z AUTO 28003KT 10SM OVC060 06/04 A3028 RMK AO2 T00640037
KAZE 170615Z AUTO 00000KT 10SM BKN060 05/04 A3027 RMK AO2 T00530041
KAZE 170555Z AUTO 00000KT 10SM CLR 05/04 A3028 RMK AO2 T00480040 10085 20048
KAZE 170535Z AUTO 00000KT 10SM CLR 06/04 A3028 RMK AO2 T00550044
KAZE 170515Z AUTO 00000KT 10SM CLR 06/03 A3028 RMK AO2 T00550025
KAZE 170455Z AUTO 00000KT 10SM CLR 06/02 A3029 RMK AO2 T00610021 401611008
KAZE 170435Z AUTO 00000KT 10SM CLR 07/01 A3029 RMK AO2 T00690013
KAZE 170415Z AUTO 00000KT 10SM CLR 07/02 A3030 RMK AO2 T00670018
KAZE 170355Z AUTO 00000KT 10SM CLR 06/02 A3030 RMK AO2 T00560023
KAZE 170335Z AUTO 00000KT 10SM CLR 06/02 A3030 RMK AO2 T00600022
KAZE 170315Z AUTO 00000KT 10SM CLR 07/01 A3030 RMK AO2 T00740014
KAZE 170255Z AUTO 00000KT 10SM CLR 06/02 A3030 RMK AO2 T00620023
KAZE 170235Z AUTO 00000KT 10SM CLR 06/02 A3031 RMK AO2 T00620017
KAZE 170215Z AUTO 15003KT 10SM CLR 06/02 A3031 RMK AO2 T00600017
KAZE 170155Z AUTO 00000KT 10SM CLR 07/01 A3030 RMK AO2 T00710013
KAZE 170135Z AUTO 00000KT 10SM CLR 07/02 A3031 RMK AO2 T00650020
KAZE 170115Z AUTO 00000KT 10SM CLR 07/02 A3031 RMK AO2 T00700016
KAZE 170055Z AUTO 00000KT 10SM CLR 07/02 A3032 RMK AO2 T00720020
KAZE 170035Z AUTO 00000KT 10SM CLR 07/03 A3032 RMK AO2 T00730027
KAZE 170015Z AUTO 00000KT 10SM CLR 08/02 A3032 RMK AO2 T00820015
KAZE 162355Z AUTO 00000KT 10SM CLR 09/01 A3033 RMK AO2 T00850011 10161 20085
KAZE 162335Z AUTO 00000KT 10SM CLR 09/01 A3032 RMK AO2 T00940011
KAZE 162315Z AUTO 00000KT 10SM CLR 10/01 A3032 RMK AO2 T00970010
KAZE 162255Z AUTO 00000KT 10SM CLR 11/00 A3032 RMK AO2 T01100002
KAZE 162235Z AUTO 00000KT 10SM CLR 12/M01 A3032 RMK AO2 T01241008
KAZE 162215Z AUTO 00000KT 10SM CLR 14/M03 A3033 RMK AO2 T01391033
KAZE 162155Z AUTO 00000KT 10SM CLR 15/M06 A3033 RMK AO2 T01501056
KAZE 162135Z AUTO 00000KT 10SM CLR 15/M06 A3033 RMK AO2 T01501059
KAZE 162115Z AUTO 00000KT 10SM CLR 15/M07 A3034 RMK AO2 T01531068
KAZE 162055Z AUTO 22003KT 10SM CLR 15/M08 A3034 RMK AO2 T01531076
KAZE 162035Z AUTO 23005KT 10SM CLR 16/M08 A3034 RMK AO2 T01571076
KAZE 162015Z AUTO 00000KT 10SM CLR 16/M08 A3034 RMK AO2 T01611079
KAZE 161955Z AUTO 00000KT 10SM CLR 16/M08 A3034 RMK AO2 T01551082
KAZE 161935Z AUTO 00000KT 10SM CLR 15/M08 A3034 RMK AO2 T01501083
KAZE 161915Z AUTO 20003KT 10SM CLR 15/M08 A3035 RMK AO2 T01511081
KAZE 161855Z AUTO 21003KT 10SM CLR 15/M08 A3035 RMK AO2 T01471082
KAZE 161835Z AUTO 22005KT 10SM CLR 15/M09 A3036 RMK AO2 T01471090
KAZE 161815Z AUTO 00000KT 10SM CLR 14/M10 A3036 RMK AO2 T01401096
KAZE 161755Z AUTO 20003KT 10SM CLR 14/M10 A3038 RMK AO2 T01361097 10136 21008
KAZE 161735Z AUTO 21004KT 10SM CLR 13/M10 A3039 RMK AO2 T01331098
KAZE 161715Z AUTO 00000KT 10SM CLR 13/M10 A3041 RMK AO2 T01271103
KAZE 161655Z AUTO 20003KT 10SM CLR 12/M10 A3042 RMK AO2 T01221104
KAZE 161635Z AUTO 00000KT 10SM CLR 12/M10 A3043 RMK AO2 T01161104
KAZE 161615Z AUTO 00000KT 10SM CLR 11/M11 A3044 RMK AO2 T01101107
KAZE 161555Z AUTO 13003KT 10SM CLR 10/M11 A3045 RMK AO2 T01001114
KAZE 161535Z AUTO 10004KT 10SM CLR 09/M11 A3046 RMK AO2 T00901109
KAZE 161515Z AUTO 14003KT 10SM CLR 09/M10 A3046 RMK AO2 T00851099
KAZE 161455Z AUTO 00000KT 10SM CLR 08/M09 A3047 RMK AO2 T00761088
KAZE 161435Z AUTO 09003KT 10SM CLR 07/M09 A3047 RMK AO2 T00691090